Skip Navigation LinksHome page > Weather > Current weather Skip Navigation Links

Current Weather

Ndjamena, Chad

For information only: do not use for flight planning or navigation.
Latest weather
Observation time Friday, March 23, 2018 8:00 AM WAT
Local time Friday, March 23, 2018 8:19 AM WAT
Flight conditions Visual Meteorological Conditions
Wind direction Southwest (220°)
Wind speed 7 mph
Visibility 6.2 mi.
Sky condition
Ceiling unlimited
Sky clear
Temperature 86°F
Dewpoint 50°F
Altimeter 29.74 in.Hg
Derived measurements
Relative humidity 29%
Heat index 86°F
Density altitude 2400 ft.
Ceiling and visibility OK.
No significant changes expected in the next two hours.
METAR FTTJ 230700Z 22006KT CAVOK 30/10 Q1007 NOSIG


Location code

InnerDrive.Weather 4.0.6615.0 Release CLR 4.0.30319.42000
Copyright ©2018 Inner Drive Technology. All rights reserved. Portions Copyright ©1986-2018 David Braverman.

Find weather

Site navigation

Skip Navigation Links

Place info

Page info

PayPal - The safer, easier way to pay online!

Return home.

Copyright ©2018 Inner Drive Technology. Purveyors of fine, hand-crafted computer software. Page printed 2018-03-23T07:19:55 UTC.